San Angelo Regional Mathis Field
KSJT : rendu visible

Aérodrome :











RETROUVEZ-NOUS SUR...

 
LOGIN :

S'inscrire | Disclaimer

   EN    FR    IT 

 









Légende :    VFR   VFR Marginal   IFR   IFR Intensif   IFR Très Intensif
Visi : 
Plafond : 
>= 8 km
>= 3000ft
5 à 8 km
1000 à 3000 ft
1500m à 5 km
500 à 1000 ft
800 à 1500m
200 à 500 ft
< 800m
< 200 ft
Symboles :   Orages  Brouillard  Fortes neiges  Fortes précipitations  Vent > 20 kt






- Altitude de l'aérodrome : 1919 ft
- Code IATA : SJT


KSJT - San Angelo Regional Mathis Field

DERNIER METAR :
  • 100742Z AUTO 03011KT 5SM RA BR FEW008 OVC014 03/02 A3015 RMK AO2 P0010 T00330017

METARs EXPIRÉS :
  • 100714Z AUTO 02009KT 4SM RA BR OVC010 04/02 A3013 RMK AO2 P0005 T00390022
  • 100651Z AUTO 03013KT 5SM RA BR OVC008 04/02 A3013 RMK AO2 CIG 006V010 SLP198 P0007 T00440022
  • 100631Z AUTO 03014KT 9SM -RA OVC008 05/03 A3011 RMK AO2 CIG 006V011 P0004 T00500028
  • 100621Z AUTO 03011KT 8SM -RA OVC010 05/03 A3010 RMK AO2 CIG 008V013 P0004 T00500033
  • 100551Z AUTO 04012KT 9SM RA OVC009 06/04 A3010 RMK AO2 CIG 005V013 SLP188 P0006 60026 T00560039 10156 20056 402110056 50016
  • 100451Z AUTO 01007KT 7SM -RA OVC006 07/05 A3011 RMK AO2 SLP189 P0012 T00670050

TAF KSJT
Valide du 10 à 06h jusqu'au 11 à 06h UTC


100520Z 1006/1106 01012KT 6SM -RA BR SCT008 OVC015
TEMPO 1006/1008 5SM RA BR BKN008
FM100800 01011KT 4SM RA BR OVC009
FM101200 01011KT P6SM -RA OVC009
FM101500 01010KT P6SM -RA OVC015
FM101800 01008KT P6SM SCT025 BKN035
FM102100 02005KT P6SM BKN060



MET'MAP, la Météo Aéronautique d'un coup d'oeil ! - Copyright ORBIFLY Décembre 2007 - Disclaimer

ORBIFLY MET'MAP TEAM :

Programmation & Développement : Alexandra Zaïnal
Sur une idée originale de : Baudouin d'Aumeries
Assistance à la programmation : Marc-Olivier Méhu
Soutien technique & logistique : Manuel Goepfert

Contact : metmap@orbifly.com




SOURCES & CREDITS :

   NOAA       Earth
Advisory